sensor_id;sensor_type;location;lat;lon;timestamp;pressure;altitude;pressure_sealevel;temperature;humidity
77263;BME280;66373;52.334;4.806;2023-05-10T00:01:45;100752.59;;;19.98;55.85
77263;BME280;66373;52.334;4.806;2023-05-10T00:04:12;100750.91;;;19.97;55.43
77263;BME280;66373;52.334;4.806;2023-05-10T00:06:39;100750.00;;;19.98;55.20
77263;BME280;66373;52.334;4.806;2023-05-10T00:09:06;100750.91;;;19.97;55.25
77263;BME280;66373;52.334;4.806;2023-05-10T00:11:33;100755.25;;;19.97;55.53
77263;BME280;66373;52.334;4.806;2023-05-10T00:14:00;100751.88;;;19.93;55.33
77263;BME280;66373;52.334;4.806;2023-05-10T00:16:27;100733.69;;;19.90;55.51
77263;BME280;66373;52.334;4.806;2023-05-10T00:18:56;100737.94;;;19.94;55.49
77263;BME280;66373;52.334;4.806;2023-05-10T00:21:23;100753.56;;;19.96;55.36
77263;BME280;66373;52.334;4.806;2023-05-10T00:23:50;100747.47;;;19.95;55.32
77263;BME280;66373;52.334;4.806;2023-05-10T00:26:17;100752.69;;;19.95;55.25
77263;BME280;66373;52.334;4.806;2023-05-10T00:28:50;100751.00;;;19.94;55.16
77263;BME280;66373;52.334;4.806;2023-05-10T00:31:18;100740.72;;;19.88;55.30
77263;BME280;66373;52.334;4.806;2023-05-10T00:33:45;100735.50;;;19.88;55.13
77263;BME280;66373;52.334;4.806;2023-05-10T00:36:13;100744.16;;;19.90;55.49
77263;BME280;66373;52.334;4.806;2023-05-10T00:38:41;100735.59;;;19.85;55.32
77263;BME280;66373;52.334;4.806;2023-05-10T00:41:08;100737.13;;;19.92;55.19
77263;BME280;66373;52.334;4.806;2023-05-10T00:43:37;100749.28;;;19.93;55.59
77263;BME280;66373;52.334;4.806;2023-05-10T00:46:04;100722.94;;;19.73;55.50
77263;BME280;66373;52.334;4.806;2023-05-10T00:48:31;100751.06;;;19.91;55.33
77263;BME280;66373;52.334;4.806;2023-05-10T00:50:58;100751.06;;;19.91;55.07
77263;BME280;66373;52.334;4.806;2023-05-10T00:53:27;100748.56;;;19.88;55.18
77263;BME280;66373;52.334;4.806;2023-05-10T00:55:55;100746.03;;;19.85;55.35
77263;BME280;66373;52.334;4.806;2023-05-10T00:58:22;100737.47;;;19.80;55.31
77263;BME280;66373;52.334;4.806;2023-05-10T01:00:54;100752.16;;;19.84;55.00
77263;BME280;66373;52.334;4.806;2023-05-10T01:03:22;100756.38;;;19.88;55.22
77263;BME280;66373;52.334;4.806;2023-05-10T01:05:49;100761.59;;;19.88;55.07
77263;BME280;66373;52.334;4.806;2023-05-10T01:08:17;100704.25;;;19.57;55.18
77263;BME280;66373;52.334;4.806;2023-05-10T01:10:46;100753.06;;;19.83;54.94
77263;BME280;66373;52.334;4.806;2023-05-10T01:13:23;100762.50;;;19.87;54.93
77263;BME280;66373;52.334;4.806;2023-05-10T01:15:55;100760.78;;;19.86;55.30
77263;BME280;66373;52.334;4.806;2023-05-10T01:18:23;100755.56;;;19.86;55.45
77263;BME280;66373;52.334;4.806;2023-05-10T01:21:01;100756.47;;;19.85;55.47
77263;BME280;66373;52.334;4.806;2023-05-10T01:23:43;100765.22;;;19.84;54.97
77263;BME280;66373;52.334;4.806;2023-05-10T01:26:45;100761.69;;;19.85;55.13
77263;BME280;66373;52.334;4.806;2023-05-10T01:29:43;100765.22;;;19.84;55.00
77263;BME280;66373;52.334;4.806;2023-05-10T01:32:22;100750.78;;;19.73;55.38
77263;BME280;66373;52.334;4.806;2023-05-10T01:34:56;100756.66;;;19.79;55.08
77263;BME280;66373;52.334;4.806;2023-05-10T01:37:33;100754.91;;;19.80;55.00
77263;BME280;66373;52.334;4.806;2023-05-10T01:40:10;100759.19;;;19.82;55.34
77263;BME280;66373;52.334;4.806;2023-05-10T01:42:51;100756.56;;;19.82;55.32
77263;BME280;66373;52.334;4.806;2023-05-10T01:45:24;100761.00;;;19.79;55.09
77263;BME280;66373;52.334;4.806;2023-05-10T01:48:03;100765.28;;;19.81;55.08
77263;BME280;66373;52.334;4.806;2023-05-10T01:50:34;100770.50;;;19.81;55.14
77263;BME280;66373;52.334;4.806;2023-05-10T01:53:02;100762.94;;;19.74;55.26
77263;BME280;66373;52.334;4.806;2023-05-10T01:55:35;100762.78;;;19.78;55.34
77263;BME280;66373;52.334;4.806;2023-05-10T01:58:05;100764.44;;;19.81;55.24
77263;BME280;66373;52.334;4.806;2023-05-10T02:00:34;100761.97;;;19.76;55.12
77263;BME280;66373;52.334;4.806;2023-05-10T02:03:06;100774.91;;;19.79;55.36
77263;BME280;66373;52.334;4.806;2023-05-10T02:05:35;100774.91;;;19.79;54.86
77263;BME280;66373;52.334;4.806;2023-05-10T02:08:06;100781.00;;;19.80;54.94
77263;BME280;66373;52.334;4.806;2023-05-10T02:10:36;100787.97;;;19.79;54.93
77263;BME280;66373;52.334;4.806;2023-05-10T02:13:05;100785.41;;;19.78;54.98
77263;BME280;66373;52.334;4.806;2023-05-10T02:15:34;100785.41;;;19.78;54.96
77263;BME280;66373;52.334;4.806;2023-05-10T02:18:06;100795.00;;;19.77;55.27
77263;BME280;66373;52.334;4.806;2023-05-10T02:20:35;100800.22;;;19.77;55.00
77263;BME280;66373;52.334;4.806;2023-05-10T02:23:03;100797.72;;;19.74;55.26
77263;BME280;66373;52.334;4.806;2023-05-10T02:25:31;100802.84;;;19.76;54.84
77263;BME280;66373;52.334;4.806;2023-05-10T02:28:02;100800.25;;;19.76;54.98
77263;BME280;66373;52.334;4.806;2023-05-10T02:30:31;100803.72;;;19.76;54.74
77263;BME280;66373;52.334;4.806;2023-05-10T02:32:59;100802.00;;;19.75;55.06
77263;BME280;66373;52.334;4.806;2023-05-10T02:35:29;100804.63;;;19.75;55.23
77263;BME280;66373;52.334;4.806;2023-05-10T02:37:59;100809.84;;;19.75;54.76
77263;BME280;66373;52.334;4.806;2023-05-10T02:40:27;100806.41;;;19.75;55.32
77263;BME280;66373;52.334;4.806;2023-05-10T02:42:56;100814.28;;;19.73;55.01
77263;BME280;66373;52.334;4.806;2023-05-10T02:45:27;100810.75;;;19.74;54.96
77263;BME280;66373;52.334;4.806;2023-05-10T02:47:56;100816.00;;;19.74;55.00
77263;BME280;66373;52.334;4.806;2023-05-10T02:50:25;100814.28;;;19.73;55.27
77263;BME280;66373;52.334;4.806;2023-05-10T02:53:00;100797.16;;;19.63;55.12
77263;BME280;66373;52.334;4.806;2023-05-10T02:55:32;100766.25;;;19.48;54.94
77263;BME280;66373;52.334;4.806;2023-05-10T02:58:02;100812.56;;;19.72;54.85
77263;BME280;66373;52.334;4.806;2023-05-10T03:00:29;100802.22;;;19.69;54.93
77263;BME280;66373;52.334;4.806;2023-05-10T03:02:56;100814.31;;;19.72;54.92
77263;BME280;66373;52.334;4.806;2023-05-10T03:05:25;100814.31;;;19.72;54.88
77263;BME280;66373;52.334;4.806;2023-05-10T03:07:52;100816.06;;;19.71;54.69
77263;BME280;66373;52.334;4.806;2023-05-10T03:10:23;100809.13;;;19.70;55.26
77263;BME280;66373;52.334;4.806;2023-05-10T03:13:06;100819.56;;;19.70;54.72
77263;BME280;66373;52.334;4.806;2023-05-10T03:15:40;100807.44;;;19.69;54.67
77263;BME280;66373;52.334;4.806;2023-05-10T03:18:12;100812.66;;;19.69;55.02
77263;BME280;66373;52.334;4.806;2023-05-10T03:20:46;100790.38;;;19.56;54.76
77263;BME280;66373;52.334;4.806;2023-05-10T03:23:16;100807.44;;;19.69;55.03
77263;BME280;66373;52.334;4.806;2023-05-10T03:25:50;100821.38;;;19.68;54.87
77263;BME280;66373;52.334;4.806;2023-05-10T03:28:18;100818.88;;;19.63;55.21
77263;BME280;66373;52.334;4.806;2023-05-10T03:30:46;100824.88;;;19.67;55.09
77263;BME280;66373;52.334;4.806;2023-05-10T03:33:13;100824.88;;;19.67;55.02
77263;BME280;66373;52.334;4.806;2023-05-10T03:35:44;100828.38;;;19.66;54.90
77263;BME280;66373;52.334;4.806;2023-05-10T03:38:12;100794.13;;;19.46;55.11
77263;BME280;66373;52.334;4.806;2023-05-10T03:40:40;100833.59;;;19.66;55.14
77263;BME280;66373;52.334;4.806;2023-05-10T03:43:09;100814.81;;;19.53;54.77
77263;BME280;66373;52.334;4.806;2023-05-10T03:45:36;100836.22;;;19.66;54.82
77263;BME280;66373;52.334;4.806;2023-05-10T03:48:03;100817.38;;;19.55;54.71
77263;BME280;66373;52.334;4.806;2023-05-10T03:50:31;100829.28;;;19.65;54.98
77263;BME280;66373;52.334;4.806;2023-05-10T03:52:58;100827.56;;;19.64;55.16
77263;BME280;66373;52.334;4.806;2023-05-10T03:55:27;100824.16;;;19.62;54.82
77263;BME280;66373;52.334;4.806;2023-05-10T03:57:55;100830.19;;;19.64;55.02
77263;BME280;66373;52.334;4.806;2023-05-10T04:00:24;100835.41;;;19.64;54.88
77263;BME280;66373;52.334;4.806;2023-05-10T04:02:54;100829.31;;;19.63;55.12
77263;BME280;66373;52.334;4.806;2023-05-10T04:05:22;100826.91;;;19.56;54.84
77263;BME280;66373;52.334;4.806;2023-05-10T04:07:51;100833.69;;;19.63;54.77
77263;BME280;66373;52.334;4.806;2023-05-10T04:10:18;100831.16;;;19.60;54.84
77263;BME280;66373;52.334;4.806;2023-05-10T04:12:47;100828.72;;;19.54;55.04
77263;BME280;66373;52.334;4.806;2023-05-10T04:15:14;100838.94;;;19.61;54.64
77263;BME280;66373;52.334;4.806;2023-05-10T04:17:42;100838.09;;;19.61;54.97
77263;BME280;66373;52.334;4.806;2023-05-10T04:20:11;100837.34;;;19.56;55.07
77263;BME280;66373;52.334;4.806;2023-05-10T04:22:38;100828.72;;;19.54;55.07
77263;BME280;66373;52.334;4.806;2023-05-10T04:25:07;100839.84;;;19.60;54.54
77263;BME280;66373;52.334;4.806;2023-05-10T04:27:35;100844.19;;;19.60;54.65
77263;BME280;66373;52.334;4.806;2023-05-10T04:30:03;100827.00;;;19.53;54.77
77263;BME280;66373;52.334;4.806;2023-05-10T04:32:30;100846.84;;;19.58;54.63
77263;BME280;66373;52.334;4.806;2023-05-10T04:34:59;100835.63;;;19.55;54.87
77263;BME280;66373;52.334;4.806;2023-05-10T04:37:28;100845.09;;;19.59;54.98
77263;BME280;66373;52.334;4.806;2023-05-10T04:39:55;100746.81;;;18.96;54.88
77263;BME280;66373;52.334;4.806;2023-05-10T04:42:22;100846.00;;;19.58;54.86
77263;BME280;66373;52.334;4.806;2023-05-10T04:44:49;100853.81;;;19.58;54.94
77263;BME280;66373;52.334;4.806;2023-05-10T04:47:17;100833.22;;;19.47;54.92
77263;BME280;66373;52.334;4.806;2023-05-10T04:49:44;100806.72;;;19.30;54.63
77263;BME280;66373;52.334;4.806;2023-05-10T04:52:13;100852.13;;;19.57;54.64
77263;BME280;66373;52.334;4.806;2023-05-10T04:54:41;100843.66;;;19.47;54.81
77263;BME280;66373;52.334;4.806;2023-05-10T04:57:08;100848.75;;;19.52;54.98
77263;BME280;66373;52.334;4.806;2023-05-10T04:59:36;100859.94;;;19.57;54.92
77263;BME280;66373;52.334;4.806;2023-05-10T05:02:05;100849.66;;;19.51;54.69
77263;BME280;66373;52.334;4.806;2023-05-10T05:04:32;100857.38;;;19.55;54.74
77263;BME280;66373;52.334;4.806;2023-05-10T05:06:59;100858.34;;;19.51;55.02
77263;BME280;66373;52.334;4.806;2023-05-10T05:09:27;100864.41;;;19.52;54.95
77263;BME280;66373;52.334;4.806;2023-05-10T05:11:54;100870.47;;;19.54;55.08
77263;BME280;66373;52.334;4.806;2023-05-10T05:14:21;100866.16;;;19.51;55.54
77263;BME280;66373;52.334;4.806;2023-05-10T05:16:50;100852.50;;;19.42;55.48
77263;BME280;66373;52.334;4.806;2023-05-10T05:19:17;100875.69;;;19.54;55.64
77263;BME280;66373;52.334;4.806;2023-05-10T05:21:45;100861.97;;;19.46;55.72
77263;BME280;66373;52.334;4.806;2023-05-10T05:24:12;100879.19;;;19.53;55.71
77263;BME280;66373;52.334;4.806;2023-05-10T05:26:40;100883.50;;;19.54;55.33
77263;BME280;66373;52.334;4.806;2023-05-10T05:29:09;100896.56;;;19.54;55.92
77263;BME280;66373;52.334;4.806;2023-05-10T05:31:36;100891.31;;;19.54;55.55
77263;BME280;66373;52.334;4.806;2023-05-10T05:34:03;100888.91;;;19.46;55.83
77263;BME280;66373;52.334;4.806;2023-05-10T05:36:30;100887.31;;;19.41;56.01
77263;BME280;66373;52.334;4.806;2023-05-10T05:39:00;100906.97;;;19.54;55.61
77263;BME280;66373;52.334;4.806;2023-05-10T05:41:27;100909.59;;;19.54;55.85
77263;BME280;66373;52.334;4.806;2023-05-10T05:43:56;100900.00;;;19.54;55.71
77263;BME280;66373;52.334;4.806;2023-05-10T05:46:23;100907.84;;;19.54;55.46
77263;BME280;66373;52.334;4.806;2023-05-10T05:48:50;100886.56;;;19.36;55.64
77263;BME280;66373;52.334;4.806;2023-05-10T05:51:17;100904.44;;;19.51;55.77
77263;BME280;66373;52.334;4.806;2023-05-10T05:53:44;100917.41;;;19.54;56.02
77263;BME280;66373;52.334;4.806;2023-05-10T05:56:11;100910.44;;;19.54;55.64
77263;BME280;66373;52.334;4.806;2023-05-10T05:58:38;100898.50;;;19.46;55.53
77263;BME280;66373;52.334;4.806;2023-05-10T06:01:06;100898.34;;;19.52;55.64
77263;BME280;66373;52.334;4.806;2023-05-10T06:03:34;100923.50;;;19.54;55.80
77263;BME280;66373;52.334;4.806;2023-05-10T06:06:01;100915.63;;;19.56;55.88
77263;BME280;66373;52.334;4.806;2023-05-10T06:08:28;100922.63;;;19.54;55.40
77263;BME280;66373;52.334;4.806;2023-05-10T06:10:55;100917.41;;;19.54;55.47
77263;BME280;66373;52.334;4.806;2023-05-10T06:13:23;100923.50;;;19.54;55.60
77263;BME280;66373;52.334;4.806;2023-05-10T06:15:50;100888.28;;;19.37;55.70
77263;BME280;66373;52.334;4.806;2023-05-10T06:18:18;100926.97;;;19.55;55.87
77263;BME280;66373;52.334;4.806;2023-05-10T06:20:45;100929.56;;;19.55;55.89
77263;BME280;66373;52.334;4.806;2023-05-10T06:23:12;100928.72;;;19.54;55.84
77263;BME280;66373;52.334;4.806;2023-05-10T06:25:39;100929.56;;;19.55;55.99
77263;BME280;66373;52.334;4.806;2023-05-10T06:28:06;100937.41;;;19.55;55.85
77263;BME280;66373;52.334;4.806;2023-05-10T06:30:36;100927.84;;;19.54;55.56
77263;BME280;66373;52.334;4.806;2023-05-10T06:33:03;100934.78;;;19.55;55.70
77263;BME280;66373;52.334;4.806;2023-05-10T06:35:32;100926.25;;;19.48;55.61
77263;BME280;66373;52.334;4.806;2023-05-10T06:37:59;100933.94;;;19.54;55.40
77263;BME280;66373;52.334;4.806;2023-05-10T06:40:26;100939.16;;;19.54;55.49
77263;BME280;66373;52.334;4.806;2023-05-10T06:42:56;100945.22;;;19.55;55.89
77263;BME280;66373;52.334;4.806;2023-05-10T06:45:25;100933.22;;;19.48;55.75
77263;BME280;66373;52.334;4.806;2023-05-10T06:47:52;100941.75;;;19.54;55.43
77263;BME280;66373;52.334;4.806;2023-05-10T06:50:20;100944.38;;;19.54;55.53
77263;BME280;66373;52.334;4.806;2023-05-10T06:52:48;100946.94;;;19.56;55.71
77263;BME280;66373;52.334;4.806;2023-05-10T06:55:16;100857.06;;;18.99;55.71
77263;BME280;66373;52.334;4.806;2023-05-10T06:57:43;100917.78;;;19.39;55.49
77263;BME280;66373;52.334;4.806;2023-05-10T07:00:10;100946.94;;;19.56;55.86
77263;BME280;66373;52.334;4.806;2023-05-10T07:02:38;100955.63;;;19.56;55.63
77263;BME280;66373;52.334;4.806;2023-05-10T07:05:08;100935.09;;;19.43;55.56
77263;BME280;66373;52.334;4.806;2023-05-10T07:07:35;100935.09;;;19.43;55.80
77263;BME280;66373;52.334;4.806;2023-05-10T07:10:04;100940.22;;;19.46;55.91
77263;BME280;66373;52.334;4.806;2023-05-10T07:12:32;100940.22;;;19.46;55.54
77263;BME280;66373;52.334;4.806;2023-05-10T07:14:59;100949.63;;;19.53;55.79
77263;BME280;66373;52.334;4.806;2023-05-10T07:17:27;100959.94;;;19.57;55.39
77263;BME280;66373;52.334;4.806;2023-05-10T07:19:54;100955.59;;;19.58;55.64
77263;BME280;66373;52.334;4.806;2023-05-10T07:22:21;100939.44;;;19.42;55.21
77263;BME280;66373;52.334;4.806;2023-05-10T07:24:48;100964.31;;;19.57;55.56
77263;BME280;66373;52.334;4.806;2023-05-10T07:27:18;100963.41;;;19.58;55.28
77263;BME280;66373;52.334;4.806;2023-05-10T07:29:45;100974.72;;;19.58;55.71
77263;BME280;66373;52.334;4.806;2023-05-10T07:32:12;100967.78;;;19.57;55.47
77263;BME280;66373;52.334;4.806;2023-05-10T07:34:39;100967.75;;;19.59;55.20
77263;BME280;66373;52.334;4.806;2023-05-10T07:37:06;100959.31;;;19.48;55.72
77263;BME280;66373;52.334;4.806;2023-05-10T07:39:33;100967.03;;;19.52;55.62
77263;BME280;66373;52.334;4.806;2023-05-10T07:42:00;100974.69;;;19.60;55.61
77263;BME280;66373;52.334;4.806;2023-05-10T07:44:29;100966.16;;;19.52;55.25
77263;BME280;66373;52.334;4.806;2023-05-10T07:46:57;100980.75;;;19.60;55.24
77263;BME280;66373;52.334;4.806;2023-05-10T07:49:24;100966.09;;;19.55;55.40
77263;BME280;66373;52.334;4.806;2023-05-10T07:51:51;100972.88;;;19.62;55.15
77263;BME280;66373;52.334;4.806;2023-05-10T07:54:18;100977.19;;;19.64;54.95
77263;BME280;66373;52.334;4.806;2023-05-10T07:56:45;100977.19;;;19.64;55.40
77263;BME280;66373;52.334;4.806;2023-05-10T07:59:15;100978.94;;;19.64;55.16
77263;BME280;66373;52.334;4.806;2023-05-10T08:01:44;100983.25;;;19.65;55.17
77263;BME280;66373;52.334;4.806;2023-05-10T08:04:11;100939.53;;;19.39;55.14
77263;BME280;66373;52.334;4.806;2023-05-10T08:06:41;100976.25;;;19.67;55.12
77263;BME280;66373;52.334;4.806;2023-05-10T08:09:08;100972.88;;;19.62;55.37
77263;BME280;66373;52.334;4.806;2023-05-10T08:11:36;100986.69;;;19.67;54.90
77263;BME280;66373;52.334;4.806;2023-05-10T08:14:03;100992.75;;;19.68;55.38
77263;BME280;66373;52.334;4.806;2023-05-10T08:16:30;100994.50;;;19.67;55.28
77263;BME280;66373;52.334;4.806;2023-05-10T08:18:59;101003.16;;;19.69;55.36
77263;BME280;66373;52.334;4.806;2023-05-10T08:21:26;100991.97;;;19.64;55.02
77263;BME280;66373;52.334;4.806;2023-05-10T08:23:57;100990.34;;;19.60;55.16
77263;BME280;66373;52.334;4.806;2023-05-10T08:26:25;100998.84;;;19.68;54.75
77263;BME280;66373;52.334;4.806;2023-05-10T08:28:54;101007.47;;;19.70;55.13
77263;BME280;66373;52.334;4.806;2023-05-10T08:31:30;101008.34;;;19.71;54.79
77263;BME280;66373;52.334;4.806;2023-05-10T08:33:59;101008.38;;;19.69;55.11
77263;BME280;66373;52.334;4.806;2023-05-10T08:36:27;101017.84;;;19.73;54.84
77263;BME280;66373;52.334;4.806;2023-05-10T08:38:54;101023.03;;;19.75;55.38
77263;BME280;66373;52.334;4.806;2023-05-10T08:41:21;101020.34;;;19.76;55.03
77263;BME280;66373;52.334;4.806;2023-05-10T08:43:50;101024.69;;;19.77;55.54
77263;BME280;66373;52.334;4.806;2023-05-10T08:46:18;101013.56;;;19.71;55.36
77263;BME280;66373;52.334;4.806;2023-05-10T08:48:46;101022.19;;;19.74;55.30
77263;BME280;66373;52.334;4.806;2023-05-10T08:51:18;101029.94;;;19.76;55.28
77263;BME280;66373;52.334;4.806;2023-05-10T08:53:47;101025.66;;;19.75;55.44
77263;BME280;66373;52.334;4.806;2023-05-10T08:56:15;101024.84;;;19.71;54.94
77263;BME280;66373;52.334;4.806;2023-05-10T08:58:43;101044.63;;;19.80;55.13
77263;BME280;66373;52.334;4.806;2023-05-10T09:01:11;101032.50;;;19.77;54.91
77263;BME280;66373;52.334;4.806;2023-05-10T09:03:42;101007.72;;;19.61;54.77
77263;BME280;66373;52.334;4.806;2023-05-10T09:06:12;101035.13;;;19.77;55.05
77263;BME280;66373;52.334;4.806;2023-05-10T09:08:41;101040.31;;;19.79;54.63
77263;BME280;66373;52.334;4.806;2023-05-10T09:11:11;101047.22;;;19.81;54.92
77263;BME280;66373;52.334;4.806;2023-05-10T09:13:41;101045.41;;;19.83;54.53
77263;BME280;66373;52.334;4.806;2023-05-10T09:16:08;101050.63;;;19.83;54.73
77263;BME280;66373;52.334;4.806;2023-05-10T09:18:39;101056.72;;;19.84;54.45
77263;BME280;66373;52.334;4.806;2023-05-10T09:21:06;101062.78;;;19.84;54.84
77263;BME280;66373;52.334;4.806;2023-05-10T09:23:33;101061.97;;;19.82;54.65
77263;BME280;66373;52.334;4.806;2023-05-10T09:26:05;101061.06;;;19.83;54.67
77263;BME280;66373;52.334;4.806;2023-05-10T09:28:32;101066.22;;;19.86;54.91
77263;BME280;66373;52.334;4.806;2023-05-10T09:31:00;101060.22;;;19.83;54.51
77263;BME280;66373;52.334;4.806;2023-05-10T09:33:27;101062.69;;;19.89;54.64
77263;BME280;66373;52.334;4.806;2023-05-10T09:35:54;101059.28;;;19.85;54.57
77263;BME280;66373;52.334;4.806;2023-05-10T09:38:21;101075.66;;;19.92;54.78
77263;BME280;66373;52.334;4.806;2023-05-10T09:40:52;101070.44;;;19.92;54.46
77263;BME280;66373;52.334;4.806;2023-05-10T09:43:22;101071.38;;;19.89;54.89
77263;BME280;66373;52.334;4.806;2023-05-10T09:45:49;101069.47;;;19.96;54.91
77263;BME280;66373;52.334;4.806;2023-05-10T09:48:23;101072.91;;;19.98;54.89
77263;BME280;66373;52.334;4.806;2023-05-10T09:50:56;101069.47;;;19.96;54.28
77263;BME280;66373;52.334;4.806;2023-05-10T09:53:23;101060.94;;;19.89;54.77
77263;BME280;66373;52.334;4.806;2023-05-10T09:55:51;101028.28;;;19.73;54.29
77263;BME280;66373;52.334;4.806;2023-05-10T09:58:18;101066.00;;;19.95;54.46
77263;BME280;66373;52.334;4.806;2023-05-10T10:00:47;101084.97;;;20.02;54.67
77263;BME280;66373;52.334;4.806;2023-05-10T10:03:20;101078.88;;;20.02;54.74
77263;BME280;66373;52.334;4.806;2023-05-10T10:05:48;101041.38;;;19.72;54.51
77263;BME280;66373;52.334;4.806;2023-05-10T10:08:18;101088.44;;;20.03;54.66
77263;BME280;66373;52.334;4.806;2023-05-10T10:10:46;101080.69;;;19.99;54.61
77263;BME280;66373;52.334;4.806;2023-05-10T10:13:13;101061.91;;;19.85;54.84
77263;BME280;66373;52.334;4.806;2023-05-10T10:15:42;101090.25;;;20.01;54.85
77263;BME280;66373;52.334;4.806;2023-05-10T10:18:15;101080.03;;;19.91;54.94
77263;BME280;66373;52.334;4.806;2023-05-10T10:20:43;101094.66;;;19.98;54.68
77263;BME280;66373;52.334;4.806;2023-05-10T10:23:10;101087.91;;;19.90;54.92
77263;BME280;66373;52.334;4.806;2023-05-10T10:25:40;101094.69;;;19.97;54.68
77263;BME280;66373;52.334;4.806;2023-05-10T10:28:19;101092.06;;;19.97;55.20
77263;BME280;66373;52.334;4.806;2023-05-10T10:30:51;101086.97;;;19.92;54.98
77263;BME280;66373;52.334;4.806;2023-05-10T10:33:56;101092.13;;;19.95;54.81
77263;BME280;66373;52.334;4.806;2023-05-10T10:36:30;101092.97;;;19.96;54.85
77263;BME280;66373;52.334;4.806;2023-05-10T10:39:09;101100.69;;;20.01;55.24
77263;BME280;66373;52.334;4.806;2023-05-10T10:41:38;101107.59;;;20.02;55.28
77263;BME280;66373;52.334;4.806;2023-05-10T10:44:36;101088.69;;;19.93;55.31
77263;BME280;66373;52.334;4.806;2023-05-10T10:47:05;101101.50;;;20.03;55.17
77263;BME280;66373;52.334;4.806;2023-05-10T10:49:43;101104.09;;;20.03;55.37
77263;BME280;66373;52.334;4.806;2023-05-10T10:52:25;101104.19;;;19.99;55.02
77263;BME280;66373;52.334;4.806;2023-05-10T10:54:59;101099.78;;;20.02;54.94
77263;BME280;66373;52.334;4.806;2023-05-10T10:57:28;101114.53;;;20.03;55.37
77263;BME280;66373;52.334;4.806;2023-05-10T11:00:23;101114.53;;;20.03;55.08
77263;BME280;66373;52.334;4.806;2023-05-10T11:02:53;101098.13;;;19.99;55.04
77263;BME280;66373;52.334;4.806;2023-05-10T11:05:37;101105.97;;;19.99;54.99
77263;BME280;66373;52.334;4.806;2023-05-10T11:08:12;101117.13;;;20.04;55.25
77263;BME280;66373;52.334;4.806;2023-05-10T11:10:48;101111.03;;;20.04;55.25
77263;BME280;66373;52.334;4.806;2023-05-10T11:13:26;101117.97;;;20.05;55.17
77263;BME280;66373;52.334;4.806;2023-05-10T11:15:54;101107.66;;;20.00;54.85
77263;BME280;66373;52.334;4.806;2023-05-10T11:18:25;101119.69;;;20.06;55.15
77263;BME280;66373;52.334;4.806;2023-05-10T11:20:56;101107.66;;;20.00;55.31
77263;BME280;66373;52.334;4.806;2023-05-10T11:23:30;101117.03;;;20.07;55.40
77263;BME280;66373;52.334;4.806;2023-05-10T11:25:58;101111.16;;;20.01;55.37
77263;BME280;66373;52.334;4.806;2023-05-10T11:28:26;101119.75;;;20.03;55.25
77263;BME280;66373;52.334;4.806;2023-05-10T11:30:54;101123.97;;;20.08;54.70
77263;BME280;66373;52.334;4.806;2023-05-10T11:33:21;101130.06;;;20.09;55.16
77263;BME280;66373;52.334;4.806;2023-05-10T11:35:48;101128.31;;;20.09;54.87
77263;BME280;66373;52.334;4.806;2023-05-10T11:38:17;101129.16;;;20.10;55.05
77263;BME280;66373;52.334;4.806;2023-05-10T11:40:44;101107.72;;;19.98;54.71
77263;BME280;66373;52.334;4.806;2023-05-10T11:43:11;101135.22;;;20.12;54.72
77263;BME280;66373;52.334;4.806;2023-05-10T11:45:40;101134.41;;;20.10;54.93
77263;BME280;66373;52.334;4.806;2023-05-10T11:48:08;101102.63;;;19.92;54.98
77263;BME280;66373;52.334;4.806;2023-05-10T11:50:35;101119.75;;;20.03;54.80
77263;BME280;66373;52.334;4.806;2023-05-10T11:53:02;101130.13;;;20.06;55.03
77263;BME280;66373;52.334;4.806;2023-05-10T11:55:35;101046.94;;;19.56;54.57
77263;BME280;66373;52.334;4.806;2023-05-10T11:58:02;101085.59;;;19.76;54.71
77263;BME280;66373;52.334;4.806;2023-05-10T12:00:30;101142.16;;;20.13;54.65
77263;BME280;66373;52.334;4.806;2023-05-10T12:03:00;101129.31;;;20.04;54.89
77263;BME280;66373;52.334;4.806;2023-05-10T12:05:27;101142.16;;;20.13;54.79
77263;BME280;66373;52.334;4.806;2023-05-10T12:08:13;101121.63;;;19.99;55.04
77263;BME280;66373;52.334;4.806;2023-05-10T12:10:41;101127.63;;;20.01;54.51
77263;BME280;66373;52.334;4.806;2023-05-10T12:13:13;101142.31;;;20.07;54.87
77263;BME280;66373;52.334;4.806;2023-05-10T12:15:44;101130.38;;;19.96;54.71
77263;BME280;66373;52.334;4.806;2023-05-10T12:18:11;101137.25;;;20.01;54.76
77263;BME280;66373;52.334;4.806;2023-05-10T12:20:39;101124.19;;;20.01;54.46
77263;BME280;66373;52.334;4.806;2023-05-10T12:23:09;101156.91;;;20.15;54.72
77263;BME280;66373;52.334;4.806;2023-05-10T12:25:37;101162.00;;;20.20;55.06
77263;BME280;66373;52.334;4.806;2023-05-10T12:28:08;101093.44;;;19.76;54.80
77263;BME280;66373;52.334;4.806;2023-05-10T12:30:37;101168.06;;;20.22;54.56
77263;BME280;66373;52.334;4.806;2023-05-10T12:33:08;101159.47;;;20.17;54.68
77263;BME280;66373;52.334;4.806;2023-05-10T12:35:45;101157.59;;;20.22;54.80
77263;BME280;66373;52.334;4.806;2023-05-10T12:38:26;101147.28;;;20.17;54.41
77263;BME280;66373;52.334;4.806;2023-05-10T12:40:55;101136.84;;;20.16;54.70
77263;BME280;66373;52.334;4.806;2023-05-10T12:43:24;101159.97;;;20.31;54.57
77263;BME280;66373;52.334;4.806;2023-05-10T12:45:51;101128.13;;;20.17;54.15
77263;BME280;66373;52.334;4.806;2023-05-10T12:48:19;101162.38;;;20.40;54.37
77263;BME280;66373;52.334;4.806;2023-05-10T12:50:46;101165.91;;;20.39;54.26
77263;BME280;66373;52.334;4.806;2023-05-10T12:53:15;101164.97;;;20.42;54.47
77263;BME280;66373;52.334;4.806;2023-05-10T12:55:42;101172.75;;;20.43;54.26
77263;BME280;66373;52.334;4.806;2023-05-10T12:58:09;101171.84;;;20.46;54.45
77263;BME280;66373;52.334;4.806;2023-05-10T13:00:40;101152.88;;;20.36;54.37
77263;BME280;66373;52.334;4.806;2023-05-10T13:03:09;101161.50;;;20.41;54.47